Time;durP1;ratioP1;P1;durP2;ratioP2;P2;SDS_P1;SDS_P2;PMS_P1;PMS_P2;Temp;Humidity;BMP_temperature;BMP_pressure;BME280_temperature;BME280_humidity;BME280_pressure;Samples;Min_cycle;Max_cycle;Signal;HPM_P1;HPM_P2
2022/04/12 00:25:32;;;;;;;26.13;14.23;;;0.50;69.60;;;;;;6177282;23;20267;-90
2022/04/12 00:28:56;;;;;;;27.27;15.87;;;0.50;99.90;;;;;;6148691;23;20173;-90
2022/04/12 01:40:25;;;;;;;7.33;3.70;;;0.20;99.90;;;;;;6043621;23;20260;-92
2022/04/12 01:43:00;;;;;;;6.30;4.17;;;0.20;99.90;;;;;;6047396;23;20197;-91
2022/04/12 01:45:30;;;;;;;10.00;4.60;;;0.30;99.90;;;;;;6042962;23;20171;-90
2022/04/12 01:47:57;;;;;;;7.53;4.27;;;0.30;99.90;;;;;;6043619;23;20165;-91
2022/04/12 01:50:31;;;;;;;7.27;4.23;;;0.30;99.90;;;;;;6046042;23;20172;-90
2022/04/12 01:53:14;;;;;;;8.93;4.17;;;0.30;99.90;;;;;;6051808;23;20188;-89
2022/04/12 01:55:59;;;;;;;7.43;4.30;;;0.30;99.90;;;;;;6051996;23;20172;-92
2022/04/12 01:58:31;;;;;;;8.07;4.10;;;0.20;99.90;;;;;;6048770;23;20237;-90
2022/04/12 04:02:18;;;;;;;35.43;24.50;;;-1.30;1.00;;;;;;6168296;23;20269;-93
2022/04/12 04:04:46;;;;;;;13.37;7.03;;;-1.20;1.00;;;;;;6157369;23;20664;-90
2022/04/12 04:10:23;;;;;;;13.20;6.43;;;-1.20;1.00;;;;;;6176249;23;20201;-90
2022/04/12 04:12:58;;;;;;;8.93;6.00;;;-1.20;1.00;;;;;;6180641;23;20165;-92
2022/04/12 04:18:27;;;;;;;10.90;7.50;;;-1.20;1.00;;;;;;6206848;23;20173;-89
2022/04/12 04:21:00;;;;;;;12.03;7.97;;;-1.10;1.00;;;;;;6209720;23;20171;-91
2022/04/12 04:23:34;;;;;;;11.50;7.60;;;-1.10;1.00;;;;;;6204750;23;20193;-92
2022/04/12 04:26:01;;;;;;;13.23;7.63;;;-1.00;1.00;;;;;;6203999;23;20593;-91
2022/04/12 04:28:30;;;;;;;29.73;21.50;;;-0.90;1.00;;;;;;6197391;23;20537;-91
2022/04/12 04:33:57;;;;;;;17.77;10.50;;;-0.80;1.00;;;;;;6147158;23;20525;-88
2022/04/12 04:36:36;;;;;;;16.47;9.57;;;-0.70;1.00;;;;;;6163202;23;20214;-94
2022/04/12 04:42:00;;;;;;;13.70;9.93;;;-0.50;1.00;;;;;;6172811;23;20258;-90
2022/04/12 04:53:12;;;;;;;21.63;10.20;;;-0.30;1.00;;;;;;6144666;23;20208;-96
2022/04/12 04:55:54;;;;;;;20.50;10.20;;;-0.30;1.00;;;;;;6173690;23;20164;-92
2022/04/12 04:59:10;;;;;;;17.57;10.57;;;-0.20;1.00;;;;;;6166315;23;20174;-90
2022/04/12 05:01:50;;;;;;;20.53;12.70;;;-0.20;66.60;;;;;;6156011;23;20170;-91
2022/04/12 05:04:17;;;;;;;19.37;12.80;;;0.30;1.00;;;;;;6160685;23;20169;-87
2022/04/12 05:06:45;;;;;;;14.23;9.57;;;1.30;1.00;;;;;;6159002;23;20475;-85
2022/04/12 05:09:16;;;;;;;12.10;7.97;;;2.40;1.00;;;;;;6173684;23;20179;-90
2022/04/12 05:14:27;;;;;;;17.50;9.43;;;4.50;99.90;;;;;;6164907;23;20500;-88
2022/04/12 05:16:54;;;;;;;15.73;9.97;;;5.40;99.90;;;;;;6162006;23;20198;-88
2022/04/12 05:19:21;;;;;;;16.50;9.47;;;6.10;1.00;;;;;;6162386;23;20175;-88
2022/04/12 05:21:49;;;;;;;14.53;9.33;;;6.90;99.90;;;;;;6173420;23;20206;-91
2022/04/12 05:24:17;;;;;;;14.10;9.67;;;7.70;1.00;;;;;;6176056;23;20145;-87
2022/04/12 05:26:47;;;;;;;15.20;9.20;;;8.50;1.00;;;;;;6169306;23;20447;-89
2022/04/12 05:29:14;;;;;;;14.70;9.83;;;9.20;99.90;;;;;;6164589;23;20172;-87
2022/04/12 05:31:43;;;;;;;;;;;9.90;1.00;;;;;;6165731;23;20145;-90
2022/04/12 05:37:20;;;;;;;14.40;9.87;;;11.10;99.90;;;;;;6156741;23;20171;-90
2022/04/12 05:39:48;;;;;;;14.10;9.83;;;11.60;99.90;;;;;;6162933;23;20516;-88
2022/04/12 05:42:30;;;;;;;13.80;10.50;;;12.20;99.90;;;;;;6168287;23;20171;-90
2022/04/12 05:45:02;;;;;;;17.07;10.90;;;12.90;1.00;;;;;;6155483;23;20538;-88
2022/04/12 05:47:29;;;;;;;16.45;11.70;;;13.40;1.00;;;;;;6177294;23;20180;-87
2022/04/12 05:49:57;;;;;;;17.15;11.70;;;13.90;1.00;;;;;;6163862;23;20170;-89
2022/04/12 05:52:24;;;;;;;15.40;11.82;;;14.30;1.00;;;;;;6167127;23;20185;-92
2022/04/12 05:54:52;;;;;;;15.73;11.93;;;14.70;1.00;;;;;;6161941;23;20170;-88
2022/04/12 05:57:28;;;;;;;16.10;11.95;;;15.10;1.00;;;;;;6165447;23;20174;-89
2022/04/12 05:59:55;;;;;;;18.90;12.60;;;15.40;1.00;;;;;;6160570;23;20170;-87
2022/04/12 06:02:22;;;;;;;15.15;11.88;;;15.80;1.00;;;;;;6159204;23;20230;-85
2022/04/12 06:04:56;;;;;;;19.05;15.80;;;16.20;1.00;;;;;;6157742;23;20174;-90
2022/04/12 06:07:29;;;;;;;17.58;12.38;;;16.50;1.00;;;;;;6156713;23;20172;-87
2022/04/12 06:09:58;;;;;;;16.17;11.75;;;16.90;1.00;;;;;;6163768;23;20170;-87
2022/04/12 06:12:24;;;;;;;14.05;11.63;;;17.60;1.00;;;;;;6158033;23;20213;-89
2022/04/12 06:14:52;;;;;;;14.38;11.15;;;18.50;1.00;;;;;;6159655;23;20179;-87
2022/04/12 06:17:19;;;;;;;15.73;11.30;;;19.50;1.00;;;;;;6160779;23;20173;-90
2022/04/12 06:19:48;;;;;;;15.57;10.43;;;20.40;1.00;;;;;;6165974;23;20170;-87
2022/04/12 06:22:15;;;;;;;15.05;10.27;;;20.90;1.00;;;;;;6155849;23;20166;-88
2022/04/12 06:24:45;;;;;;;15.40;10.30;;;21.10;1.00;;;;;;6161828;23;20229;-91
2022/04/12 06:27:28;;;;;;;14.45;10.43;;;21.70;1.00;;;;;;6159705;23;20170;-90
2022/04/12 06:29:55;;;;;;;13.25;10.20;;;22.20;1.00;;;;;;6154874;23;20221;-87
2022/04/12 06:32:22;;;;;;;13.60;10.13;;;22.70;1.00;;;;;;6157656;23;20245;-88
2022/04/12 06:34:52;;;;;;;13.35;10.27;;;23.20;1.00;;;;;;6160237;23;20540;-90
2022/04/12 06:37:19;;;;;;;14.60;10.65;;;23.40;1.00;;;;;;6157646;23;20173;-87
2022/04/12 06:39:46;;;;;;;13.07;10.88;;;23.70;1.00;;;;;;6158406;23;20166;-88
2022/04/12 06:42:14;;;;;;;13.90;11.38;;;23.80;1.00;;;;;;6156697;23;20166;-88
2022/04/12 06:44:41;;;;;;;12.77;10.80;;;23.90;1.00;;;;;;6156233;23;20543;-89
2022/04/12 06:47:18;;;;;;;12.80;9.18;;;24.20;1.00;;;;;;6158765;23;20167;-90
2022/04/12 06:49:45;;;;;;;12.05;7.82;;;24.60;1.00;;;;;;6156752;23;20158;-87
2022/04/12 06:52:13;;;;;;;9.60;7.05;;;24.70;1.00;;;;;;6156176;23;20190;-88
2022/04/12 06:54:40;;;;;;;9.45;6.75;;;24.90;1.00;;;;;;6157109;23;20171;-88
2022/04/12 06:57:07;;;;;;;9.73;7.07;;;25.30;1.00;;;;;;6156055;23;20167;-87
2022/04/12 06:59:36;;;;;;;13.68;9.60;;;;;;;;;;6157537;23;20167;-87
2022/04/12 07:02:04;;;;;;;11.38;7.13;;;26.40;1.00;;;;;;6155813;23;20170;-86
2022/04/12 07:04:32;;;;;;;8.43;6.63;;;27.00;1.00;;;;;;6158019;23;20167;-89
2022/04/12 07:07:00;;;;;;;8.50;6.20;;;27.20;1.00;;;;;;6166083;23;20179;-90
2022/04/12 07:09:28;;;;;;;11.27;7.53;;;27.00;1.00;;;;;;6156346;23;20166;-89
2022/04/12 07:11:56;;;;;;;9.88;7.05;;;27.30;1.00;;;;;;6157557;23;20163;-88
2022/04/12 07:14:23;;;;;;;10.13;7.22;;;27.50;1.00;;;;;;6155837;23;20189;-90
2022/04/12 07:16:52;;;;;;;7.72;6.43;;;27.80;1.00;;;;;;6156017;23;20197;-89
2022/04/12 07:19:19;;;;;;;11.18;6.65;;;28.10;1.00;;;;;;6157481;23;20169;-89
2022/04/12 07:21:47;;;;;;;9.15;6.22;;;28.30;1.00;;;;;;6154372;23;20229;-89
2022/04/12 07:24:14;;;;;;;8.48;6.03;;;28.60;1.00;;;;;;6156132;23;20251;-91
2022/04/12 07:26:42;;;;;;;9.10;6.63;;;28.80;1.00;;;;;;6157177;23;20226;-88
2022/04/12 07:29:10;;;;;;;9.60;5.82;;;28.70;1.00;;;;;;6157891;23;20550;-89
2022/04/12 07:31:38;;;;;;;7.82;5.22;;;28.70;1.00;;;;;;6157867;23;20167;-88
2022/04/12 07:34:07;;;;;;;7.85;5.60;;;28.50;1.00;;;;;;6156066;23;20194;-88
2022/04/12 07:36:36;;;;;;;7.97;5.03;;;28.40;1.00;;;;;;6156712;23;20245;-90
2022/04/12 07:39:04;;;;;;;12.00;6.72;;;28.10;1.00;;;;;;6160552;23;20189;-90
2022/04/12 07:41:31;;;;;;;5.07;4.45;;;28.00;1.00;;;;;;6158668;23;20166;-89
2022/04/12 07:44:00;;;;;;;8.75;5.45;;;28.10;1.00;;;;;;6158345;23;20245;-91
2022/04/12 07:46:27;;;;;;;6.32;4.35;;;28.30;1.00;;;;;;6155812;23;20669;-89
2022/04/12 07:48:54;;;;;;;8.07;4.95;;;28.70;1.00;;;;;;6158937;23;20269;-89
2022/04/12 07:51:32;;;;;;;7.10;3.95;;;29.00;1.00;;;;;;6160549;23;20174;-91
2022/04/12 07:54:01;;;;;;;7.60;5.03;;;29.10;1.00;;;;;;6159492;23;20213;-89
2022/04/12 07:56:28;;;;;;;4.55;3.60;;;28.90;1.00;;;;;;6158179;23;20170;-88
2022/04/12 07:58:55;;;;;;;10.40;4.75;;;28.80;1.00;;;;;;6155996;23;20225;-88
2022/04/12 08:01:22;;;;;;;5.00;3.40;;;28.70;1.00;;;;;;6159213;23;20170;-89
2022/04/12 08:03:56;;;;;;;5.90;3.78;;;28.50;1.00;;;;;;6159133;23;20228;-93
2022/04/12 08:06:25;;;;;;;5.18;3.40;;;28.20;1.00;;;;;;6156110;23;20208;-89
2022/04/12 08:08:55;;;;;;;5.47;3.40;;;28.00;1.00;;;;;;6162031;23;20225;-88
2022/04/12 08:11:22;;;;;;;11.13;7.03;;;27.60;1.00;;;;;;6156220;23;20198;-88
2022/04/12 08:13:49;;;;;;;17.92;15.45;;;27.50;1.00;;;;;;6156952;23;20185;-90
2022/04/12 08:16:16;;;;;;;54.42;44.78;;;27.50;1.00;;;;;;6155995;23;20170;-88
2022/04/12 08:18:44;;;;;;;16.88;10.75;;;27.60;1.00;;;;;;6162735;23;20167;-87
2022/04/12 08:21:11;;;;;;;8.82;7.50;;;27.80;1.00;;;;;;6167521;23;20532;-89
2022/04/12 08:23:39;;;;;;;15.52;12.70;;;27.90;1.00;;;;;;6164127;23;20237;-87
2022/04/12 08:26:13;;;;;;;17.00;14.27;;;28.30;1.00;;;;;;6169319;23;20171;-93
2022/04/12 08:28:40;;;;;;;9.50;7.45;;;28.30;1.00;;;;;;6173726;23;20161;-89
2022/04/12 08:31:07;;;;;;;16.13;4.40;;;28.50;1.00;;;;;;6165660;23;20163;-90
2022/04/12 08:33:41;;;;;;;6.38;3.67;;;28.30;1.00;;;;;;6162204;23;20175;-93
2022/04/12 08:36:59;;;;;;;94.82;69.70;;;28.10;1.00;;;;;;6159485;23;20223;-96
2022/04/12 08:39:27;;;;;;;11.45;7.72;;;27.80;1.00;;;;;;6157874;23;20167;-90
2022/04/12 08:41:58;;;;;;;18.40;7.45;;;27.50;1.00;;;;;;6157568;23;20217;-92
2022/04/12 08:44:26;;;;;;;7.28;3.70;;;27.40;1.00;;;;;;6160228;23;20171;-91
2022/04/12 08:46:54;;;;;;;6.25;2.85;;;27.50;1.00;;;;;;6158867;23;20177;-88
2022/04/12 08:49:23;;;;;;;4.82;3.28;;;27.10;1.00;;;;;;6155715;23;20253;-88
2022/04/12 08:51:50;;;;;;;5.32;3.13;;;26.70;1.00;;;;;;6156839;23;20198;-89
2022/04/12 08:54:18;;;;;;;5.30;3.20;;;26.20;1.00;;;;;;6158609;23;20237;-87
2022/04/12 08:56:48;;;;;;;6.35;3.60;;;26.00;1.00;;;;;;6155514;23;20170;-88
2022/04/12 08:59:16;;;;;;;6.38;3.13;;;26.10;1.00;;;;;;6155444;23;20166;-88
2022/04/12 09:01:43;;;;;;;5.82;4.00;;;26.10;1.00;;;;;;6155504;23;20167;-86
2022/04/12 09:04:11;;;;;;;8.13;3.95;;;25.90;1.00;;;;;;6155259;23;20568;-88
2022/04/12 09:06:49;;;;;;;4.38;3.28;;;25.70;1.00;;;;;;6158221;23;20170;-89
2022/04/12 09:09:18;;;;;;;6.63;3.40;;;25.70;1.00;;;;;;6155981;23;20217;-89
2022/04/12 09:11:56;;;;;;;5.18;3.40;;;25.40;1.00;;;;;;6155321;23;20169;-88
2022/04/12 09:14:23;;;;;;;5.13;3.50;;;25.10;1.00;;;;;;6155437;23;20217;-88
2022/04/12 09:16:51;;;;;;;10.38;7.30;;;24.60;1.00;;;;;;6155501;23;20261;-88
2022/04/12 09:19:38;;;;;;;6.70;5.35;;;24.40;1.00;;;;;;6155879;23;20703;-89
2022/04/12 09:22:11;;;;;;;7.13;4.40;;;24.50;1.00;;;;;;6160651;23;20221;-89
2022/04/12 09:29:00;;;;;;;7.13;5.38;;;24.60;1.00;;;;;;6086271;23;20159;-93
2022/04/12 09:35:02;;;;;;;6.97;4.88;;;24.10;1.00;;;;;;6114619;23;20203;-91
2022/04/12 10:30:38;;;;;;;5.40;2.85;;;18.70;1.00;;;;;;6052862;23;20182;-89
2022/04/12 10:33:11;;;;;;;5.20;2.60;;;18.70;1.00;;;;;;6209896;23;20168;-93
2022/04/12 10:39:28;;;;;;;;;;;;;;;;;;;;;
2022/04/12 10:42:01;;;;;;;11.73;6.60;;;18.40;1.00;;;;;;6210239;23;20142;-90
2022/04/12 10:45:04;;;;;;;5.82;2.97;;;18.40;1.00;;;;;;6209921;23;20229;-93
2022/04/12 10:47:48;;;;;;;5.32;3.40;;;18.50;1.00;;;;;;6210139;23;20165;-91
2022/04/12 10:50:37;;;;;;;4.18;2.85;;;18.60;1.00;;;;;;6210580;23;20149;-93
2022/04/12 10:53:14;;;;;;;7.40;4.18;;;18.50;1.00;;;;;;6193125;23;20166;-91
2022/04/12 10:55:46;;;;;;;6.95;3.50;;;18.30;1.00;;;;;;6209979;23;20158;-90
2022/04/12 10:58:35;;;;;;;4.78;2.92;;;18.20;1.00;;;;;;6210137;23;20139;-89
2022/04/12 11:01:36;;;;;;;8.57;6.57;;;18.00;1.00;;;;;;6211046;23;20142;-92
2022/04/12 11:07:01;;;;;;;6.30;3.45;;;17.70;1.00;;;;;;6193348;23;20176;-89
2022/04/12 11:09:39;;;;;;;7.65;4.78;;;17.60;1.00;;;;;;6212006;23;20156;-91
2022/04/12 11:12:42;;;;;;;4.40;3.17;;;17.50;1.00;;;;;;6212152;23;20159;-90
2022/04/12 11:15:24;;;;;;;7.75;4.45;;;17.40;1.00;;;;;;6147617;23;20212;-90
2022/04/12 11:18:09;;;;;;;7.60;5.45;;;17.30;1.00;;;;;;6182167;23;20162;-92
2022/04/12 11:20:38;;;;;;;5.85;3.22;;;17.00;1.00;;;;;;6181809;23;20164;-93
2022/04/12 11:26:50;;;;;;;6.05;3.25;;;16.90;1.00;;;;;;6115763;23;20167;-88
2022/04/12 11:29:19;;;;;;;6.57;4.30;;;17.00;1.00;;;;;;6149818;23;20168;-93
2022/04/12 11:31:53;;;;;;;4.30;3.42;;;17.00;1.00;;;;;;6182156;23;20179;-91
2022/04/12 11:37:23;;;;;;;4.50;3.45;;;17.10;1.00;;;;;;6143736;23;20173;-88
2022/04/12 11:39:50;;;;;;;6.43;4.25;;;17.00;1.00;;;;;;6155192;23;20228;-88
2022/04/12 11:42:17;;;;;;;8.73;7.47;;;16.80;1.00;;;;;;6155726;23;20537;-89
2022/04/12 11:44:52;;;;;;;10.43;8.18;;;16.90;1.00;;;;;;6155536;23;20230;-89
2022/04/12 11:47:21;;;;;;;9.15;7.40;;;17.00;1.00;;;;;;6156015;23;20164;-86
2022/04/12 11:49:48;;;;;;;7.65;4.40;;;17.00;1.00;;;;;;6155796;23;20169;-87
2022/04/12 11:52:16;;;;;;;6.15;3.17;;;17.00;1.00;;;;;;6155884;23;20506;-88
2022/04/12 11:54:45;;;;;;;12.10;4.90;;;17.00;1.00;;;;;;6155907;23;20653;-87
2022/04/12 11:57:14;;;;;;;11.05;6.90;;;17.10;1.00;;;;;;6155673;23;20570;-88
2022/04/12 11:59:48;;;;;;;12.27;8.45;;;17.10;1.00;;;;;;6155866;23;20169;-87
2022/04/12 12:02:16;;;;;;;6.85;3.95;;;17.10;1.00;;;;;;6156287;23;20173;-87
2022/04/12 12:04:47;;;;;;;7.60;4.15;;;17.20;1.00;;;;;;6156233;23;20172;-88
2022/04/12 12:07:15;;;;;;;5.72;3.22;;;17.00;1.00;;;;;;6156155;23;20200;-88
2022/04/12 12:09:53;;;;;;;8.60;4.43;;;16.90;1.00;;;;;;6155662;23;20690;-88
2022/04/12 12:12:20;;;;;;;6.07;3.92;;;16.90;1.00;;;;;;6155052;23;20186;-88
2022/04/12 12:14:47;;;;;;;4.35;3.22;;;16.90;1.00;;;;;;6156044;23;20202;-87
2022/04/12 12:17:18;;;;;;;6.60;3.70;;;16.90;1.00;;;;;;6155814;23;20178;-88
2022/04/12 12:19:48;;;;;;;5.88;3.97;;;16.90;1.00;;;;;;6155628;23;20159;-88
2022/04/12 12:22:15;;;;;;;10.07;6.18;;;16.90;1.00;;;;;;6156301;23;20546;-88
2022/04/12 12:24:53;;;;;;;9.32;5.05;;;16.90;1.00;;;;;;6155755;23;20236;-88
2022/04/12 12:27:34;;;;;;;8.68;3.65;;;16.80;1.00;;;;;;6156022;23;20181;-89
2022/04/12 12:30:03;;;;;;;5.60;3.03;;;16.80;1.00;;;;;;6155915;23;20168;-88
2022/04/12 12:32:34;;;;;;;9.07;4.15;;;16.70;1.00;;;;;;6155567;23;20557;-88
2022/04/12 12:35:07;;;;;;;8.65;3.63;;;16.70;1.00;;;;;;6155956;23;20553;-88
2022/04/12 12:37:35;;;;;;;4.47;3.20;;;16.70;1.00;;;;;;6154792;23;20177;-88
2022/04/12 12:40:03;;;;;;;6.22;4.03;;;16.70;1.00;;;;;;6154810;23;20247;-89
2022/04/12 12:42:37;;;;;;;6.80;3.72;;;16.60;1.00;;;;;;6154159;23;20198;-88
2022/04/12 12:45:11;;;;;;;6.68;3.70;;;16.50;1.00;;;;;;6155187;23;20184;-88
2022/04/12 12:47:40;;;;;;;4.95;3.58;;;16.40;1.00;;;;;;6155715;23;20236;-87
2022/04/12 12:50:11;;;;;;;5.07;3.55;;;16.40;1.00;;;;;;6155509;23;20177;-89
2022/04/12 12:52:38;;;;;;;5.75;3.72;;;16.50;1.00;;;;;;6156143;23;20178;-90
2022/04/12 12:55:08;;;;;;;7.93;4.80;;;16.40;1.00;;;;;;6155429;23;20251;-88
2022/04/12 12:57:39;;;;;;;5.13;3.33;;;16.50;1.00;;;;;;6155448;23;20197;-85
2022/04/12 13:00:07;;;;;;;14.90;7.35;;;16.60;1.00;;;;;;6155810;23;20666;-88
2022/04/12 13:02:35;;;;;;;17.20;9.15;;;16.60;1.00;;;;;;6155921;23;20174;-88
2022/04/12 13:05:04;;;;;;;9.98;4.50;;;16.60;1.00;;;;;;6155894;23;20184;-88
2022/04/12 13:07:34;;;;;;;8.68;3.50;;;16.70;1.00;;;;;;6155501;23;20181;-88
2022/04/12 13:10:12;;;;;;;7.38;3.92;;;16.70;1.00;;;;;;6155781;23;20168;-87
2022/04/12 13:12:40;;;;;;;4.38;3.13;;;16.60;1.00;;;;;;6155917;23;20521;-88
2022/04/12 13:15:08;;;;;;;6.23;3.77;;;16.50;1.00;;;;;;6175269;23;20204;-86
2022/04/12 13:17:36;;;;;;;10.63;3.72;;;16.50;1.00;;;;;;6184774;23;20485;-87
2022/04/12 13:20:04;;;;;;;8.38;5.93;;;16.50;1.00;;;;;;6184259;23;20556;-88
2022/04/12 13:22:33;;;;;;;11.13;7.20;;;16.60;1.00;;;;;;6183624;23;20173;-89
2022/04/12 13:25:01;;;;;;;10.70;7.00;;;16.60;1.00;;;;;;6183463;23;20212;-87
2022/04/12 13:27:29;;;;;;;5.43;3.38;;;16.60;1.00;;;;;;6184236;23;20169;-88
2022/04/12 13:29:57;;;;;;;8.02;4.63;;;16.60;1.00;;;;;;6184224;23;20168;-88
2022/04/12 13:32:24;;;;;;;6.45;4.47;;;16.50;1.00;;;;;;6183824;23;20540;-88
2022/04/12 13:34:52;;;;;;;6.78;3.80;;;16.60;1.00;;;;;;6184412;23;20196;-88
2022/04/12 13:37:20;;;;;;;5.95;3.60;;;16.60;1.00;;;;;;6185039;23;20167;-89
2022/04/12 13:39:51;;;;;;;5.68;3.67;;;16.60;1.00;;;;;;6184963;23;20229;-88
2022/04/12 13:42:18;;;;;;;8.95;4.72;;;16.60;1.00;;;;;;6184916;23;20202;-88
2022/04/12 13:44:47;;;;;;;5.00;3.53;;;16.70;1.00;;;;;;6184553;23;20181;-88
2022/04/12 13:47:14;;;;;;;7.30;4.50;;;16.80;1.00;;;;;;6184910;23;20238;-88
2022/04/12 13:49:41;;;;;;;6.68;3.53;;;16.80;1.00;;;;;;6184873;23;20176;-89
2022/04/12 13:52:08;;;;;;;7.25;3.70;;;16.80;1.00;;;;;;6184785;23;20245;-87
2022/04/12 13:54:35;;;;;;;4.93;3.83;;;16.80;1.00;;;;;;6184697;23;20571;-88
2022/04/12 13:57:04;;;;;;;15.30;7.80;;;16.80;1.00;;;;;;6184755;23;20176;-88
2022/04/12 13:59:32;;;;;;;7.35;4.95;;;16.70;1.00;;;;;;6184927;23;20623;-88
2022/04/12 14:02:00;;;;;;;10.40;5.80;;;16.60;1.00;;;;;;6184255;23;20473;-88
2022/04/12 14:04:27;;;;;;;6.93;5.00;;;16.60;1.00;;;;;;6184361;23;20178;-88
2022/04/12 14:06:54;;;;;;;13.02;9.32;;;16.50;1.00;;;;;;6184643;23;20223;-88
2022/04/12 14:09:21;;;;;;;8.60;4.30;;;16.50;1.00;;;;;;6184581;23;20176;-88
2022/04/12 14:11:48;;;;;;;4.72;3.55;;;16.50;1.00;;;;;;6184788;23;20173;-88
2022/04/12 14:14:17;;;;;;;6.57;4.35;;;16.50;1.00;;;;;;6174442;23;20217;-88
2022/04/12 14:16:45;;;;;;;8.57;4.68;;;16.40;1.00;;;;;;6154540;23;20693;-88
2022/04/12 14:19:14;;;;;;;6.07;4.18;;;16.30;1.00;;;;;;6154536;23;20177;-88
2022/04/12 14:21:41;;;;;;;5.07;3.83;;;16.30;1.00;;;;;;6154887;23;20635;-87
2022/04/12 14:24:09;;;;;;;8.23;4.18;;;16.30;1.00;;;;;;6154498;23;20172;-88
2022/04/12 14:26:37;;;;;;;6.25;4.43;;;16.30;1.00;;;;;;6154487;23;20499;-88
2022/04/12 14:29:07;;;;;;;7.35;4.43;;;16.20;1.00;;;;;;6154835;23;20232;-88
2022/04/12 14:31:35;;;;;;;18.98;13.38;;;16.30;1.00;;;;;;6154887;23;20244;-87
2022/04/12 14:34:03;;;;;;;14.02;10.30;;;16.40;1.00;;;;;;6154872;23;20173;-88
2022/04/12 14:36:30;;;;;;;8.23;5.28;;;16.50;1.00;;;;;;6156235;23;20187;-89
2022/04/12 14:38:57;;;;;;;9.77;6.40;;;16.50;1.00;;;;;;6156955;23;20176;-88
2022/04/12 14:41:25;;;;;;;10.73;6.45;;;16.60;1.00;;;;;;6156697;23;20541;-88
2022/04/12 14:43:52;;;;;;;7.15;4.55;;;16.70;1.00;;;;;;6156984;23;20169;-88
2022/04/12 14:46:19;;;;;;;6.57;4.15;;;16.80;1.00;;;;;;6156365;23;20177;-88
2022/04/12 14:48:48;;;;;;;12.38;6.22;;;16.80;1.00;;;;;;6156822;23;20281;-88
2022/04/12 14:51:15;;;;;;;12.38;9.10;;;16.90;1.00;;;;;;6156808;23;20224;-89
2022/04/12 14:53:44;;;;;;;8.02;4.68;;;16.90;1.00;;;;;;6156382;23;20290;-89
2022/04/12 14:56:12;;;;;;;6.40;4.35;;;17.00;1.00;;;;;;6156601;23;20260;-88
2022/04/12 14:58:41;;;;;;;6.85;4.63;;;17.00;1.00;;;;;;6156629;23;20174;-86
2022/04/12 15:01:08;;;;;;;7.30;4.97;;;17.00;1.00;;;;;;6155263;23;20223;-86
2022/04/12 15:03:37;;;;;;;6.75;4.47;;;17.00;1.00;;;;;;6155526;23;20543;-86
2022/04/12 15:06:07;;;;;;;7.10;4.38;;;17.00;1.00;;;;;;6154999;23;20205;-88
2022/04/12 15:08:34;;;;;;;10.23;4.70;;;16.90;1.00;;;;;;6154875;23;20173;-86
2022/04/12 15:11:01;;;;;;;7.20;4.60;;;16.80;1.00;;;;;;6155161;23;20265;-86
2022/04/12 15:13:29;;;;;;;7.97;4.70;;;16.70;1.00;;;;;;6155021;23;20173;-85
2022/04/12 15:15:57;;;;;;;6.97;4.63;;;16.60;1.00;;;;;;6185155;23;20258;-85
2022/04/12 15:18:24;;;;;;;5.90;4.13;;;16.30;1.00;;;;;;6185709;23;20468;-86
2022/04/12 15:20:51;;;;;;;6.38;4.20;;;16.20;1.00;;;;;;6185537;23;20491;-86
2022/04/12 15:23:20;;;;;;;7.65;4.75;;;16.10;1.00;;;;;;6185904;23;20173;-86
2022/04/12 15:25:47;;;;;;;6.67;5.17;;;16.00;1.00;;;;;;6185709;23;20175;-86
2022/04/12 15:28:14;;;;;;;9.48;5.55;;;16.00;1.00;;;;;;6185705;23;20171;-86
2022/04/12 15:30:41;;;;;;;7.40;4.87;;;15.90;1.00;;;;;;6185746;23;20236;-86
2022/04/12 15:33:08;;;;;;;9.93;6.43;;;15.80;1.00;;;;;;6186032;23;20176;-86
2022/04/12 15:35:36;;;;;;;10.87;6.63;;;15.70;1.00;;;;;;6185931;23;20215;-86
2022/04/12 15:38:03;;;;;;;10.73;7.03;;;15.60;1.00;;;;;;6185976;23;20173;-86
2022/04/12 15:40:34;;;;;;;13.13;9.03;;;15.60;1.00;;;;;;6185586;23;20228;-86
2022/04/12 15:43:03;;;;;;;11.77;7.30;;;15.50;1.00;;;;;;6184016;23;20601;-87
2022/04/12 15:45:31;;;;;;;25.80;13.03;;;15.40;1.00;;;;;;6184868;23;20542;-87
2022/04/12 15:47:58;;;;;;;21.33;11.87;;;15.40;1.00;;;;;;6184565;23;20877;-86
2022/04/12 15:50:26;;;;;;;18.17;9.30;;;15.30;1.00;;;;;;6184705;23;20169;-86
2022/04/12 15:52:53;;;;;;;21.77;11.87;;;15.30;1.00;;;;;;6185038;23;20231;-86
2022/04/12 15:55:22;;;;;;;9.77;6.37;;;15.20;1.00;;;;;;6184253;23;20716;-86
2022/04/12 15:57:50;;;;;;;17.50;9.33;;;15.20;1.00;;;;;;6184769;23;20252;-85
2022/04/12 16:00:19;;;;;;;7.53;5.37;;;15.10;1.00;;;;;;6185671;23;20176;-86
2022/04/12 16:02:46;;;;;;;9.00;5.63;;;15.00;1.00;;;;;;6185852;23;20174;-86
2022/04/12 16:05:14;;;;;;;8.97;6.07;;;14.90;1.00;;;;;;6185039;23;20228;-86
2022/04/12 16:07:47;;;;;;;10.07;6.83;;;14.80;1.00;;;;;;6185259;23;20301;-87
2022/04/12 16:10:15;;;;;;;9.30;5.87;;;14.70;1.00;;;;;;6185340;23;20164;-86
2022/04/12 16:12:42;;;;;;;31.13;17.03;;;14.60;1.00;;;;;;6185303;23;20211;-86
2022/04/12 16:15:11;;;;;;;14.93;8.20;;;14.50;1.00;;;;;;6163190;23;20204;-87
2022/04/12 16:17:38;;;;;;;12.53;6.50;;;14.40;1.00;;;;;;6155016;23;20177;-87
2022/04/12 16:20:06;;;;;;;14.33;6.73;;;14.40;1.00;;;;;;6155200;23;20569;-86
2022/04/12 16:22:33;;;;;;;10.33;6.70;;;14.30;1.00;;;;;;6155909;23;20183;-86
2022/04/12 16:25:00;;;;;;;10.03;6.17;;;14.30;1.00;;;;;;6152931;23;20174;-86
2022/04/12 16:27:28;;;;;;;9.33;6.70;;;14.20;1.00;;;;;;6150675;23;20186;-86
2022/04/12 16:29:55;;;;;;;22.27;10.27;;;14.10;1.00;;;;;;6152659;23;20187;-87
2022/04/12 16:32:24;;;;;;;22.60;12.73;;;14.10;1.00;;;;;;6155386;23;20696;-87
2022/04/12 16:34:52;;;;;;;19.67;12.77;;;14.00;1.00;;;;;;6154247;23;20176;-87
2022/04/12 16:37:19;;;;;;;13.80;8.60;;;13.90;1.00;;;;;;6154724;23;20677;-87
2022/04/12 16:39:46;;;;;;;19.83;11.73;;;13.80;1.00;;;;;;6152422;23;20170;-86
2022/04/12 16:42:13;;;;;;;38.93;21.10;;;13.70;1.00;;;;;;6153333;23;20229;-88
2022/04/12 16:44:41;;;;;;;19.77;13.23;;;13.70;1.00;;;;;;6154875;23;20668;-87
2022/04/12 16:47:08;;;;;;;9.97;6.90;;;13.60;1.00;;;;;;6155266;23;20185;-86
2022/04/12 16:49:36;;;;;;;14.50;7.50;;;13.50;1.00;;;;;;6153874;23;20609;-87
2022/04/12 16:52:04;;;;;;;9.70;6.57;;;13.40;1.00;;;;;;6154838;23;20178;-87
2022/04/12 16:54:31;;;;;;;9.87;7.23;;;13.40;1.00;;;;;;6155407;23;20194;-86
2022/04/12 16:56:59;;;;;;;13.23;8.00;;;13.30;1.00;;;;;;6154892;23;20197;-88
2022/04/12 16:59:26;;;;;;;13.63;8.60;;;13.20;1.00;;;;;;6154271;23;20266;-86
2022/04/12 17:01:53;;;;;;;10.63;7.10;;;13.10;1.00;;;;;;6155293;23;20175;-85
2022/04/12 17:04:20;;;;;;;11.73;8.10;;;13.10;1.00;;;;;;6152078;23;20643;-86
2022/04/12 17:06:48;;;;;;;8.70;6.30;;;12.90;1.00;;;;;;6154987;23;20173;-86
2022/04/12 17:09:15;;;;;;;11.33;7.03;;;12.90;1.00;;;;;;6152642;23;20169;-86
2022/04/12 17:11:44;;;;;;;11.70;6.67;;;12.80;1.00;;;;;;6153379;23;20252;-85
2022/04/12 17:14:11;;;;;;;7.67;5.83;;;12.70;1.00;;;;;;6162755;23;20667;-86
2022/04/12 17:16:39;;;;;;;8.00;6.23;;;12.60;1.00;;;;;;6182654;23;20195;-86
2022/04/12 17:19:07;;;;;;;9.83;6.37;;;12.50;1.00;;;;;;6183696;23;20553;-87
2022/04/12 17:21:34;;;;;;;8.87;5.90;;;12.50;1.00;;;;;;6182902;23;20172;-87
2022/04/12 17:24:02;;;;;;;11.67;6.50;;;12.40;1.00;;;;;;6182222;23;20227;-87
2022/04/12 17:26:29;;;;;;;11.87;6.50;;;12.30;1.00;;;;;;6183562;23;20176;-85
2022/04/12 17:28:59;;;;;;;10.00;6.00;;;12.20;1.00;;;;;;6183233;23;20175;-86
2022/04/12 17:31:26;;;;;;;8.40;6.17;;;12.20;1.00;;;;;;6183439;23;20171;-85
2022/04/12 17:33:53;;;;;;;9.37;6.10;;;12.10;1.00;;;;;;6184521;23;20228;-84
2022/04/12 17:36:20;;;;;;;8.77;5.80;;;12.00;1.00;;;;;;6184778;23;20249;-84
2022/04/12 17:38:46;;;;;;;8.03;6.00;;;11.90;1.00;;;;;;6184187;23;20198;-84
2022/04/12 17:41:15;;;;;;;9.03;5.67;;;11.90;1.00;;;;;;6184885;23;20226;-86
2022/04/12 17:43:43;;;;;;;8.97;5.80;;;11.80;1.00;;;;;;6184470;23;20244;-84
2022/04/12 17:46:11;;;;;;;9.53;5.97;;;11.70;1.00;;;;;;6184886;23;20187;-88
2022/04/12 17:48:38;;;;;;;9.43;6.13;;;11.60;1.00;;;;;;6183749;23;20217;-88
2022/04/12 17:51:06;;;;;;;11.07;6.07;;;11.40;1.00;;;;;;6184519;23;20174;-85
2022/04/12 17:53:33;;;;;;;9.23;5.90;;;11.40;1.00;;;;;;6184281;23;20628;-85
2022/04/12 17:56:00;;;;;;;9.63;6.07;;;11.30;1.00;;;;;;6184204;23;20190;-85
2022/04/12 17:58:30;;;;;;;9.70;6.27;;;11.20;1.00;;;;;;6184717;23;20168;-85
2022/04/12 18:00:58;;;;;;;11.40;6.90;;;11.10;1.00;;;;;;6184767;23;20165;-85
2022/04/12 18:03:25;;;;;;;9.70;6.33;;;11.00;1.00;;;;;;6184154;23;20260;-86
2022/04/12 18:05:52;;;;;;;9.10;6.17;;;10.90;1.00;;;;;;6184353;23;20544;-85
2022/04/12 18:08:19;;;;;;;8.83;6.43;;;10.90;1.00;;;;;;6184406;23;20230;-85
2022/04/12 18:10:46;;;;;;;10.20;6.23;;;10.80;1.00;;;;;;6183632;23;20251;-85
2022/04/12 18:13:14;;;;;;;8.97;6.20;;;10.80;1.00;;;;;;6184064;23;20243;-85
2022/04/12 18:15:43;;;;;;;9.77;6.27;;;10.70;1.00;;;;;;6157136;23;20652;-84
2022/04/12 18:18:10;;;;;;;10.87;6.60;;;10.60;1.00;;;;;;6155450;23;20626;-87
2022/04/12 18:20:37;;;;;;;9.87;6.67;;;10.50;1.00;;;;;;6154444;23;20180;-84
2022/04/12 18:23:05;;;;;;;8.63;6.17;;;10.50;1.00;;;;;;6160524;23;20633;-84